createdAt,value
2022-12-24T06:43:03.337Z,29.52
2022-12-24T06:46:26.516Z,32.60
2022-12-24T06:49:48.325Z,34.55
2022-12-24T06:53:10.764Z,32.47
2022-12-24T06:56:32.679Z,25.85
2022-12-24T06:59:54.579Z,24.42
2022-12-24T07:03:16.518Z,20.85
2022-12-24T07:06:38.544Z,19.67
2022-12-24T07:10:00.423Z,24.73
2022-12-24T07:13:23.312Z,28.17
2022-12-24T07:16:50.473Z,27.95
2022-12-24T07:20:20.623Z,28.92
2022-12-24T07:23:42.648Z,27.20
2022-12-24T07:27:12.354Z,25.83
2022-12-24T07:30:34.199Z,18.30
2022-12-24T07:33:56.024Z,26.73
2022-12-24T07:37:17.879Z,19.35
2022-12-24T07:40:39.800Z,24.60
2022-12-24T07:44:02.862Z,23.90
2022-12-24T07:47:24.774Z,21.90
2022-12-24T07:50:49.274Z,23.92
2022-12-24T07:54:11.410Z,30.88
2022-12-24T07:57:33.373Z,25.38
2022-12-24T08:01:03.785Z,32.03
2022-12-24T08:04:27.676Z,33.60
2022-12-24T08:07:49.446Z,27.05
2022-12-24T08:11:13.854Z,24.75
2022-12-24T08:14:35.774Z,29.40
2022-12-24T08:17:57.732Z,31.10
2022-12-24T08:21:19.565Z,21.15
2022-12-24T08:24:41.545Z,30.30
2022-12-24T08:28:04.415Z,28.48
2022-12-24T08:31:26.266Z,18.73
2022-12-24T08:34:49.165Z,21.27
2022-12-24T08:38:11.028Z,18.48
2022-12-24T08:41:37.832Z,21.95
2022-12-24T08:45:00.403Z,28.10
2022-12-24T08:48:22.407Z,30.35
2022-12-24T08:51:52.081Z,16.55
2022-12-24T08:55:18.134Z,28.75
2022-12-24T08:58:40.055Z,24.88
2022-12-24T09:02:02.565Z,25.45
2022-12-24T09:05:31.833Z,29.48
2022-12-24T09:09:07.632Z,38.72
2022-12-24T09:12:29.568Z,25.77
2022-12-24T09:15:55.693Z,28.00
2022-12-24T09:19:17.667Z,37.00
2022-12-24T09:22:40.761Z,44.38
2022-12-24T09:26:15.126Z,38.90
2022-12-24T09:29:40.473Z,30.42
2022-12-24T09:33:04.409Z,34.15
2022-12-24T09:36:37.133Z,42.15
2022-12-24T09:39:59.040Z,23.70
2022-12-24T09:43:34.041Z,30.73
2022-12-24T09:47:01.220Z,27.67
2022-12-24T09:50:59.059Z,23.40
2022-12-24T09:54:47.728Z,20.65
2022-12-24T09:58:31.320Z,39.67
2022-12-24T10:01:55.937Z,42.42
2022-12-24T10:05:29.383Z,45.20
2022-12-24T10:09:13.370Z,28.25
2022-12-24T10:13:08.012Z,34.70
2022-12-24T10:17:10.128Z,34.33
2022-12-24T10:20:57.002Z,33.03
2022-12-24T10:24:32.449Z,29.38
2022-12-24T10:28:16.845Z,34.92
2022-12-24T10:31:56.854Z,38.35
2022-12-24T10:35:44.977Z,26.92
2022-12-24T10:39:25.661Z,30.90
2022-12-24T10:42:55.584Z,32.05
2022-12-24T10:46:36.312Z,39.15
2022-12-24T10:50:06.755Z,31.10
2022-12-24T10:53:40.138Z,33.55
2022-12-24T10:57:03.250Z,32.75
2022-12-24T11:00:33.562Z,32.53
2022-12-24T11:04:03.560Z,30.65
2022-12-24T11:07:32.024Z,27.13
2022-12-24T11:11:20.311Z,18.67
2022-12-24T11:14:59.347Z,20.42
2022-12-24T11:19:02.704Z,28.52
2022-12-24T11:22:32.606Z,27.10
2022-12-24T11:25:57.021Z,28.75
2022-12-24T11:29:27.067Z,30.10
2022-12-24T11:33:18.863Z,26.98
2022-12-24T11:36:40.759Z,21.73
2022-12-24T11:40:45.490Z,23.75
2022-12-24T11:44:12.455Z,23.33
2022-12-24T11:47:41.586Z,21.08
2022-12-24T11:51:18.778Z,24.98
2022-12-24T11:55:18.699Z,30.27
2022-12-24T11:58:53.506Z,25.35
2022-12-24T12:02:42.680Z,23.60
2022-12-24T12:06:23.782Z,28.98
2022-12-24T12:09:58.909Z,30.42
2022-12-24T12:13:33.937Z,21.52
2022-12-24T12:17:43.610Z,21.70
2022-12-24T12:21:14.202Z,26.65
2022-12-24T12:24:52.736Z,27.65
2022-12-24T12:28:44.319Z,24.80
2022-12-24T12:32:27.629Z,20.67
2022-12-24T12:35:54.871Z,22.73
2022-12-24T12:39:31.452Z,25.35
2022-12-24T12:43:14.461Z,25.23
2022-12-24T12:47:27.030Z,28.80
2022-12-24T12:51:26.938Z,30.50
2022-12-24T12:55:29.468Z,19.77
2022-12-24T12:59:08.073Z,21.45
2022-12-24T13:03:22.939Z,23.88
2022-12-24T13:07:17.536Z,19.70
2022-12-24T13:11:33.692Z,17.25
2022-12-24T13:15:14.232Z,13.20
2022-12-24T13:19:09.540Z,22.50
2022-12-24T13:22:37.531Z,15.82
2022-12-24T13:26:14.136Z,15.02
2022-12-24T13:29:53.477Z,20.10
2022-12-24T13:33:38.321Z,15.25
2022-12-24T13:37:04.508Z,19.20
2022-12-24T13:40:28.370Z,22.88
2022-12-24T13:44:20.504Z,17.05
2022-12-24T13:47:42.640Z,18.02
2022-12-24T13:51:26.107Z,22.90
2022-12-24T13:55:19.566Z,15.73
2022-12-24T13:58:50.266Z,22.38
2022-12-24T14:02:22.647Z,21.00
2022-12-24T14:05:44.561Z,20.27
2022-12-24T14:09:23.141Z,19.48
2022-12-24T14:12:52.911Z,23.73
2022-12-24T14:16:30.589Z,20.88
2022-12-24T14:20:02.314Z,17.30
2022-12-24T14:23:55.186Z,14.75
2022-12-24T14:27:50.503Z,16.52
2022-12-24T14:31:19.426Z,17.65
2022-12-24T14:35:15.023Z,16.42
2022-12-24T14:38:53.623Z,14.35
2022-12-24T14:43:09.193Z,21.38
2022-12-24T14:46:50.773Z,12.02
2022-12-24T14:50:39.603Z,11.60
2022-12-24T14:54:26.086Z,27.23
2022-12-24T14:58:26.885Z,21.95
2022-12-24T15:01:50.816Z,9.90
2022-12-24T15:05:19.475Z,14.23
2022-12-24T15:08:49.785Z,16.83
2022-12-24T15:12:13.467Z,14.75
2022-12-24T15:15:52.035Z,17.92
2022-12-24T15:19:36.005Z,17.40
2022-12-24T15:22:59.386Z,21.10
2022-12-24T15:26:24.923Z,21.95
2022-12-24T15:30:15.218Z,15.48
2022-12-24T15:33:38.159Z,24.08
2022-12-24T15:37:16.745Z,14.50
2022-12-24T15:40:38.655Z,18.30
2022-12-24T15:44:04.158Z,17.20
2022-12-24T15:47:52.781Z,17.20
2022-12-24T15:51:37.976Z,25.35
2022-12-24T15:55:03.076Z,20.67
2022-12-24T15:58:30.995Z,14.77
2022-12-24T16:01:55.386Z,23.77
2022-12-24T16:05:36.130Z,24.13
2022-12-24T16:08:58.683Z,16.13
2022-12-24T16:12:24.982Z,13.48
2022-12-24T16:15:56.451Z,24.48
2022-12-24T16:19:22.893Z,25.92
2022-12-24T16:22:47.705Z,17.65
2022-12-24T16:26:10.635Z,19.67
2022-12-24T16:29:32.513Z,23.58
2022-12-24T16:32:54.347Z,33.60
2022-12-24T16:36:16.157Z,24.63
2022-12-24T16:39:38.069Z,27.20
2022-12-24T16:43:18.395Z,26.75
2022-12-24T16:46:40.262Z,21.38
2022-12-24T16:50:06.831Z,20.80
2022-12-24T16:53:28.648Z,25.88
2022-12-24T16:56:50.817Z,14.52
2022-12-24T17:00:28.844Z,20.40
2022-12-24T17:03:50.794Z,20.98
2022-12-24T17:07:16.246Z,20.60
2022-12-24T17:10:41.049Z,21.90
2022-12-24T17:14:08.974Z,21.17
2022-12-24T17:17:32.873Z,19.30
2022-12-24T17:21:00.762Z,36.17
2022-12-24T17:24:22.602Z,25.83
2022-12-24T17:27:44.503Z,28.63
2022-12-24T17:31:10.002Z,20.77
2022-12-24T17:34:32.009Z,19.80
2022-12-24T17:37:53.845Z,21.77
2022-12-24T17:41:20.371Z,28.40
2022-12-24T17:44:42.204Z,22.73
2022-12-24T17:48:22.201Z,23.35
2022-12-24T17:51:45.899Z,20.85
2022-12-24T17:55:09.101Z,30.10
2022-12-24T17:58:31.348Z,31.13
2022-12-24T18:01:53.295Z,18.02
2022-12-24T18:05:25.479Z,21.13
2022-12-24T18:08:47.991Z,24.13
2022-12-24T18:12:10.368Z,16.80
2022-12-24T18:15:40.069Z,20.35
2022-12-24T18:19:04.191Z,14.57
2022-12-24T18:22:33.111Z,12.88
2022-12-24T18:26:12.557Z,21.40
2022-12-24T18:29:35.117Z,20.45
2022-12-24T18:32:57.004Z,17.83
2022-12-24T18:36:20.662Z,18.90
2022-12-24T18:39:44.295Z,17.23
2022-12-24T18:43:10.190Z,20.67
2022-12-24T18:46:34.064Z,17.20
2022-12-24T18:50:01.138Z,23.27
2022-12-24T18:53:23.563Z,21.75
2022-12-24T18:56:45.405Z,15.18
2022-12-24T19:00:26.145Z,22.95
2022-12-24T19:03:49.216Z,12.98
2022-12-24T19:07:11.134Z,16.67
2022-12-24T19:10:38.325Z,18.45
2022-12-24T19:14:01.940Z,16.60
2022-12-24T19:17:23.885Z,13.63
2022-12-24T19:20:54.020Z,16.98
2022-12-24T19:24:15.870Z,14.40
2022-12-24T19:27:37.733Z,17.73
2022-12-24T19:31:05.833Z,17.13
2022-12-24T19:34:28.462Z,18.77
2022-12-24T19:37:50.337Z,13.23
2022-12-24T19:41:19.661Z,14.63
2022-12-24T19:44:43.573Z,15.13
2022-12-24T19:48:05.936Z,16.35
2022-12-24T19:51:29.413Z,10.68
2022-12-24T19:54:53.422Z,13.82
2022-12-24T19:58:15.339Z,23.63
2022-12-24T20:01:37.489Z,19.05
2022-12-24T20:05:06.715Z,11.52
2022-12-24T20:08:30.498Z,12.52
2022-12-24T20:11:52.421Z,13.10
2022-12-24T20:15:14.315Z,11.60
2022-12-24T20:19:08.287Z,12.65
2022-12-24T20:22:30.131Z,15.50
2022-12-24T20:26:02.105Z,14.00
2022-12-24T20:29:24.064Z,21.92
2022-12-24T20:32:58.306Z,15.18
2022-12-24T20:36:23.868Z,16.25
2022-12-24T20:39:45.765Z,11.60
2022-12-24T20:43:13.881Z,17.35
2022-12-24T20:46:49.118Z,16.52
2022-12-24T20:50:11.084Z,11.77
2022-12-24T20:53:33.343Z,18.23
2022-12-24T20:57:01.125Z,24.08
2022-12-24T21:00:30.395Z,21.20
2022-12-24T21:03:54.611Z,15.98
2022-12-24T21:07:20.613Z,16.13
2022-12-24T21:10:46.848Z,18.50
2022-12-24T21:14:09.822Z,16.20
2022-12-24T21:17:31.763Z,14.55
2022-12-24T21:20:55.252Z,20.63
2022-12-24T21:24:19.455Z,20.48
2022-12-24T21:27:56.764Z,16.25
2022-12-24T21:31:18.917Z,14.13
2022-12-24T21:34:42.812Z,23.23
2022-12-24T21:38:15.388Z,19.23
2022-12-24T21:41:37.308Z,15.85
2022-12-24T21:44:59.633Z,17.40
2022-12-24T21:48:50.991Z,19.25
2022-12-24T21:52:12.928Z,19.10
2022-12-24T21:55:36.850Z,18.13
2022-12-24T21:59:01.846Z,21.38
2022-12-24T22:02:28.897Z,20.25
2022-12-24T22:05:59.249Z,16.35
2022-12-24T22:09:53.084Z,20.55
2022-12-24T22:13:20.042Z,19.98
2022-12-24T22:16:44.258Z,18.98
2022-12-24T22:20:09.351Z,22.67
2022-12-24T22:23:40.457Z,27.98
2022-12-24T22:27:15.395Z,18.75
2022-12-24T22:30:47.424Z,19.63
2022-12-24T22:34:45.392Z,20.00
2022-12-24T22:38:12.833Z,16.65
2022-12-24T22:41:54.986Z,21.88
2022-12-24T22:45:23.114Z,17.43
2022-12-24T22:49:02.585Z,21.73
2022-12-24T22:52:24.824Z,22.10
2022-12-24T22:56:15.551Z,16.77
2022-12-24T22:59:39.096Z,19.17
2022-12-24T23:03:01.059Z,16.48
2022-12-24T23:06:22.969Z,16.23
2022-12-24T23:09:44.805Z,17.48
2022-12-24T23:13:26.223Z,18.13
2022-12-24T23:16:48.157Z,21.50
2022-12-24T23:20:22.497Z,18.48
2022-12-24T23:23:52.579Z,17.75
2022-12-24T23:27:14.525Z,22.02
2022-12-24T23:30:37.562Z,22.23
2022-12-24T23:33:59.553Z,19.83
2022-12-24T23:37:29.573Z,19.95
2022-12-24T23:41:11.480Z,18.08
2022-12-24T23:44:33.341Z,22.00
2022-12-24T23:47:55.143Z,19.83
2022-12-24T23:51:23.381Z,17.73
2022-12-24T23:54:45.566Z,17.75
2022-12-24T23:58:15.214Z,27.02
